createdAt,value
2019-04-20T00:01:38.760Z,94949.50
2019-04-20T00:04:10.804Z,94948.43
2019-04-20T00:06:45.093Z,94944.19
2019-04-20T00:09:18.299Z,94946.19
2019-04-20T00:11:50.719Z,94947.97
2019-04-20T00:14:15.957Z,94947.61
2019-04-20T00:16:41.941Z,94948.45
2019-04-20T00:19:10.740Z,94947.81
2019-04-20T00:21:53.501Z,94955.14
2019-04-20T00:24:23.387Z,94953.09
2019-04-20T00:27:15.922Z,94960.42
2019-04-20T00:29:40.455Z,94972.13
2019-04-20T00:32:03.075Z,94975.48
2019-04-20T00:34:26.654Z,94979.58
2019-04-20T00:36:51.922Z,94987.82
2019-04-20T00:39:21.786Z,94990.68
2019-04-20T00:41:56.077Z,94983.73
2019-04-20T00:44:25.153Z,94978.55
2019-04-20T00:47:04.494Z,94978.20
2019-04-20T00:49:35.004Z,94974.12
2019-04-20T00:52:18.835Z,94970.03
2019-04-20T00:54:22.337Z,94978.56
2019-04-20T00:56:53.171Z,94976.23
2019-04-20T00:59:35.468Z,94972.48
2019-04-20T01:02:09.064Z,94973.88
2019-04-20T01:04:40.977Z,94973.08
2019-04-20T01:07:10.755Z,94960.45
2019-04-20T01:09:28.848Z,94953.56
2019-04-20T01:11:58.632Z,94961.75
2019-04-20T01:14:38.054Z,94952.12
2019-04-20T01:17:06.987Z,94950.22
2019-04-20T01:19:27.937Z,94952.59
2019-04-20T01:22:03.621Z,94944.75
2019-04-20T01:24:31.464Z,94938.61
2019-04-20T01:27:00.788Z,94935.19
2019-04-20T01:29:38.375Z,94944.32
2019-04-20T01:32:12.500Z,94939.82
2019-04-20T01:34:42.759Z,94941.27
2019-04-20T01:37:13.109Z,94940.53
2019-04-20T01:39:37.117Z,94944.52
2019-04-20T01:42:00.337Z,94943.26
2019-04-20T01:44:34.260Z,94945.56
2019-04-20T01:47:03.181Z,94943.23
2019-04-20T01:49:32.435Z,94944.77
2019-04-20T01:52:10.724Z,94942.52
2019-04-20T01:54:52.805Z,94941.73
2019-04-20T01:57:10.276Z,94941.84
2019-04-20T01:59:47.073Z,94940.63
2019-04-20T02:02:29.406Z,94936.72
2019-04-20T02:05:06.229Z,94940.92
2019-04-20T02:07:36.699Z,94932.77
2019-04-20T02:10:03.649Z,94931.23
2019-04-20T02:12:34.263Z,94932.97
2019-04-20T02:15:04.282Z,94930.35
2019-04-20T02:17:39.309Z,94935.08
2019-04-20T02:20:22.812Z,94926.15
2019-04-20T02:22:49.018Z,94929.08
2019-04-20T02:25:03.519Z,94932.30
2019-04-20T02:27:40.878Z,94931.38
2019-04-20T02:30:30.433Z,94932.66
2019-04-20T02:33:19.295Z,94934.55
2019-04-20T02:35:56.756Z,94937.70
2019-04-20T02:38:21.791Z,94934.23
2019-04-20T02:43:25.312Z,94924.22
2019-04-20T02:48:23.535Z,94922.19
2019-04-20T02:50:54.452Z,94915.43
2019-04-20T02:53:32.713Z,94915.09
2019-04-20T02:55:58.209Z,94921.42
2019-04-20T02:58:23.947Z,94912.42
2019-04-20T03:00:44.468Z,94908.02
2019-04-20T03:03:07.913Z,94910.00
2019-04-20T03:05:35.206Z,94908.22
2019-04-20T03:08:13.775Z,94912.28
2019-04-20T03:10:53.879Z,94914.11
2019-04-20T03:13:15.894Z,94911.81
2019-04-20T03:15:42.398Z,94910.64
2019-04-20T03:18:18.079Z,94910.06
2019-04-20T03:20:47.813Z,94910.88
2019-04-20T03:26:05.317Z,94914.06
2019-04-20T03:28:45.647Z,94913.45
2019-04-20T03:32:03.933Z,94913.21
2019-04-20T03:34:38.298Z,94917.72
2019-04-20T03:36:50.267Z,94912.71
2019-04-20T03:39:10.036Z,94918.36
2019-04-20T03:41:30.476Z,94922.41
2019-04-20T03:43:49.814Z,94926.02
2019-04-20T03:46:25.497Z,94926.72
2019-04-20T03:49:04.227Z,94931.20
2019-04-20T03:51:39.810Z,94928.98
2019-04-20T03:54:14.773Z,94930.20
2019-04-20T03:56:49.648Z,94926.13
2019-04-20T03:59:19.493Z,94932.98
2019-04-20T04:02:22.191Z,94930.88
2019-04-20T04:04:56.040Z,94930.53
2019-04-20T04:07:17.919Z,94934.09
2019-04-20T04:09:56.405Z,94935.70
2019-04-20T04:12:46.806Z,94933.84
2019-04-20T04:15:14.892Z,94946.11
2019-04-20T04:17:45.573Z,94946.63
2019-04-20T04:20:17.748Z,94948.54
2019-04-20T04:23:06.063Z,94951.70
2019-04-20T04:25:24.963Z,94951.20
2019-04-20T04:28:06.347Z,94952.17
2019-04-20T04:30:32.018Z,94947.16
2019-04-20T04:33:33.974Z,94949.38
2019-04-20T04:35:29.819Z,94948.46
2019-04-20T04:38:11.275Z,94956.89
2019-04-20T04:40:49.812Z,94956.62
2019-04-20T04:43:10.395Z,94961.68
2019-04-20T04:45:24.030Z,94964.38
2019-04-20T04:47:51.386Z,94963.30
2019-04-20T04:50:24.849Z,94964.00
2019-04-20T04:52:59.671Z,94966.07
2019-04-20T04:55:34.461Z,94966.52
2019-04-20T04:57:51.625Z,94970.01
2019-04-20T05:00:26.202Z,94971.31
2019-04-20T05:02:57.990Z,94972.17
2019-04-20T05:05:41.277Z,94969.87
2019-04-20T05:08:02.825Z,94971.76
2019-04-20T05:10:24.629Z,94968.00
2019-04-20T05:12:54.701Z,94964.84
2019-04-20T05:15:37.316Z,94969.18
2019-04-20T05:18:14.091Z,94972.03
2019-04-20T05:20:46.833Z,94974.48
2019-04-20T05:23:12.671Z,94968.86
2019-04-20T05:25:56.993Z,94974.91
2019-04-20T05:28:20.732Z,94980.63
2019-04-20T05:30:45.746Z,94983.73
2019-04-20T05:33:21.400Z,94989.20
2019-04-20T05:36:01.918Z,94988.88
2019-04-20T05:38:36.378Z,94988.47
2019-04-20T05:41:04.496Z,94993.07
2019-04-20T05:43:37.191Z,94991.66
2019-04-20T05:46:08.366Z,94998.20
2019-04-20T05:48:40.869Z,94997.77
2019-04-20T05:51:12.151Z,95003.21
2019-04-20T05:53:48.834Z,94999.58
2019-04-20T05:56:08.881Z,95005.50
2019-04-20T05:58:38.473Z,95011.06
2019-04-20T06:01:18.561Z,95009.84
2019-04-20T06:03:38.282Z,95008.95
2019-04-20T06:06:20.436Z,95016.20
2019-04-20T06:08:53.881Z,95012.18
2019-04-20T06:11:14.624Z,95018.48
2019-04-20T06:13:43.045Z,95019.53
2019-04-20T06:16:18.181Z,95019.16
2019-04-20T06:18:49.705Z,95013.23
2019-04-20T06:21:35.372Z,95016.31
2019-04-20T06:23:56.386Z,95023.11
2019-04-20T06:26:44.121Z,95024.90
2019-04-20T06:28:55.754Z,95018.86
2019-04-20T06:31:31.957Z,95018.52
2019-04-20T06:34:30.128Z,95017.14
2019-04-20T06:36:49.924Z,95016.53
2019-04-20T06:39:21.402Z,95020.42
2019-04-20T06:42:14.046Z,95026.95
2019-04-20T06:44:24.228Z,95024.63
2019-04-20T06:47:00.138Z,95032.60
2019-04-20T06:49:25.661Z,95028.09
2019-04-20T06:51:59.409Z,95032.22
2019-04-20T06:54:36.093Z,95034.01
2019-04-20T06:57:07.335Z,95036.75
2019-04-20T06:59:38.706Z,95037.23
2019-04-20T07:02:11.968Z,95035.39
2019-04-20T07:07:10.191Z,95041.86
2019-04-20T07:09:47.429Z,95042.67
2019-04-20T07:12:03.018Z,95058.66
2019-04-20T07:14:27.486Z,95051.78
2019-04-20T07:17:24.553Z,95065.47
2019-04-20T07:19:39.933Z,95060.58
2019-04-20T07:22:32.222Z,95066.41
2019-04-20T07:24:59.308Z,95058.67
2019-04-20T07:27:24.346Z,95063.29
2019-04-20T07:32:17.781Z,95061.19
2019-04-20T07:34:56.775Z,95060.89
2019-04-20T07:40:11.618Z,95065.27
2019-04-20T07:42:40.755Z,95067.73
2019-04-20T07:45:19.918Z,95080.08
2019-04-20T07:50:09.314Z,95076.69
2019-04-20T07:52:33.911Z,95079.57
2019-04-20T07:57:37.449Z,95080.59
2019-04-20T08:00:17.555Z,95085.90
2019-04-20T08:02:50.948Z,95084.48
2019-04-20T08:05:18.246Z,95087.27
2019-04-20T08:07:44.019Z,95084.73
2019-04-20T08:10:06.448Z,95091.71
2019-04-20T08:15:36.488Z,95094.72
2019-04-20T08:18:11.259Z,95097.25
2019-04-20T08:20:29.469Z,95091.39
2019-04-20T08:22:58.695Z,95100.83
2019-04-20T08:25:22.723Z,95092.48
2019-04-20T08:27:55.097Z,95080.56
2019-04-20T08:30:56.064Z,95090.27
2019-04-20T08:33:28.011Z,95094.94
2019-04-20T08:36:06.330Z,95088.60
2019-04-20T08:39:07.764Z,95084.97
2019-04-20T08:41:00.157Z,95090.17
2019-04-20T08:43:39.563Z,95082.24
2019-04-20T08:46:06.641Z,95083.38
2019-04-20T08:48:33.253Z,95086.52
2019-04-20T08:51:04.799Z,95089.50
2019-04-20T08:53:50.195Z,95081.41
2019-04-20T08:55:56.749Z,95093.66
2019-04-20T08:58:13.732Z,95089.00
2019-04-20T09:00:49.952Z,95094.77
2019-04-20T09:03:20.162Z,95078.03
2019-04-20T09:05:52.301Z,95096.09
2019-04-20T09:08:21.246Z,95088.81
2019-04-20T09:10:59.796Z,95085.13
2019-04-20T09:13:25.983Z,95090.88
2019-04-20T09:15:44.813Z,95090.75
2019-04-20T09:18:32.466Z,95091.66
2019-04-20T09:21:01.523Z,95089.27
2019-04-20T09:23:41.135Z,95087.63
2019-04-20T09:26:14.961Z,95095.63
2019-04-20T09:28:56.820Z,95098.36
2019-04-20T09:31:33.150Z,95092.12
2019-04-20T09:34:07.524Z,95099.16
2019-04-20T09:36:45.787Z,95091.98
2019-04-20T09:39:24.738Z,95099.63
2019-04-20T09:42:00.415Z,95091.92
2019-04-20T09:44:24.561Z,95087.11
2019-04-20T09:46:55.909Z,95086.62
2019-04-20T09:49:37.506Z,95088.39
2019-04-20T09:52:06.579Z,95082.48
2019-04-20T09:54:42.925Z,95085.33
2019-04-20T09:57:13.749Z,95084.11
2019-04-20T09:59:45.030Z,95083.16
2019-04-20T10:02:02.173Z,95101.03
2019-04-20T10:04:25.698Z,95095.76
2019-04-20T10:06:55.273Z,95095.37
2019-04-20T10:09:29.115Z,95096.74
2019-04-20T10:11:55.378Z,95105.78
2019-04-20T10:14:24.806Z,95100.08
2019-04-20T10:16:53.857Z,95097.70
2019-04-20T10:19:30.009Z,95096.64
2019-04-20T10:21:52.956Z,95100.44
2019-04-20T10:24:21.596Z,95101.68
2019-04-20T10:26:50.524Z,95104.30
2019-04-20T10:29:19.578Z,95101.77
2019-04-20T10:31:54.637Z,95102.50
2019-04-20T10:34:22.104Z,95105.59
2019-04-20T10:36:51.433Z,95100.87
2019-04-20T10:39:22.530Z,95110.89
2019-04-20T10:44:25.557Z,95102.97
2019-04-20T10:46:54.272Z,95106.58
2019-04-20T10:49:22.909Z,95113.77
2019-04-20T10:51:51.777Z,95114.52
2019-04-20T10:54:20.539Z,95112.06
2019-04-20T10:56:49.788Z,95108.66
2019-04-20T10:59:19.375Z,95118.16
2019-04-20T11:01:48.027Z,95111.80
2019-04-20T11:04:16.753Z,95126.34
2019-04-20T11:06:46.849Z,95126.48
2019-04-20T11:09:16.489Z,95121.52
2019-04-20T11:11:46.100Z,95126.02
2019-04-20T11:14:22.807Z,95128.00
2019-04-20T11:16:46.585Z,95115.16
2019-04-20T11:19:15.655Z,95126.50
2019-04-20T11:21:46.196Z,95125.09
2019-04-20T11:24:16.294Z,95118.28
2019-04-20T11:26:45.635Z,95124.72
2019-04-20T11:29:16.103Z,95127.12
2019-04-20T11:31:49.236Z,95132.69
2019-04-20T11:34:23.592Z,95129.16
2019-04-20T11:36:47.078Z,95124.59
2019-04-20T11:39:16.848Z,95135.09
2019-04-20T11:41:45.771Z,95134.80
2019-04-20T11:44:15.700Z,95135.98
2019-04-20T11:46:44.907Z,95130.16
2019-04-20T11:49:13.556Z,95135.41
2019-04-20T11:51:43.439Z,95138.86
2019-04-20T11:54:12.498Z,95132.78
2019-04-20T11:56:45.300Z,95121.52
2019-04-20T11:59:12.648Z,95130.63
2019-04-20T12:02:03.579Z,95132.49
2019-04-20T12:04:44.173Z,95139.34
2019-04-20T12:07:06.833Z,95134.16
2019-04-20T12:09:35.546Z,95130.83
2019-04-20T12:12:16.869Z,95126.50
2019-04-20T12:14:34.697Z,95133.77
2019-04-20T12:17:03.796Z,95132.64
2019-04-20T12:19:34.806Z,95136.30
2019-04-20T12:22:03.551Z,95143.47
2019-04-20T12:24:33.217Z,95136.23
2019-04-20T12:27:02.927Z,95141.71
2019-04-20T12:29:32.093Z,95131.96
2019-04-20T12:32:02.288Z,95133.16
2019-04-20T12:34:31.117Z,95131.93
2019-04-20T12:37:00.736Z,95130.64
2019-04-20T12:39:29.438Z,95128.22
2019-04-20T12:42:02.146Z,95123.73
2019-04-20T12:44:28.449Z,95119.84
2019-04-20T12:46:57.186Z,95119.07
2019-04-20T12:49:25.907Z,95114.56
2019-04-20T12:51:59.457Z,95113.64
2019-04-20T12:54:24.961Z,95121.97
2019-04-20T12:56:53.618Z,95128.65
2019-04-20T12:59:23.445Z,95135.63
2019-04-20T13:01:53.361Z,95133.23
2019-04-20T13:04:22.703Z,95128.81
2019-04-20T13:06:53.737Z,95127.92
2019-04-20T13:09:22.861Z,95130.22
2019-04-20T13:11:59.044Z,95123.31
2019-04-20T13:14:52.705Z,95129.36
2019-04-20T13:17:22.179Z,95119.42
2019-04-20T13:19:51.250Z,95120.55
2019-04-20T13:22:21.088Z,95119.28
2019-04-20T13:24:49.833Z,95113.77
2019-04-20T13:27:18.745Z,95121.27
2019-04-20T13:29:50.549Z,95125.81
2019-04-20T13:32:18.164Z,95125.11
2019-04-20T13:34:47.680Z,95118.33
2019-04-20T13:37:16.309Z,95119.08
2019-04-20T13:39:44.959Z,95117.52
2019-04-20T13:42:20.741Z,95121.28
2019-04-20T13:44:45.166Z,95123.13
2019-04-20T13:47:14.907Z,95124.84
2019-04-20T13:49:43.563Z,95122.36
2019-04-20T13:52:14.730Z,95129.39
2019-04-20T13:54:44.106Z,95117.98
2019-04-20T13:57:21.988Z,95115.24
2019-04-20T13:59:55.874Z,95124.91
2019-04-20T14:02:38.634Z,95126.55
2019-04-20T14:05:08.684Z,95123.70
2019-04-20T14:07:37.626Z,95129.02
2019-04-20T14:10:07.124Z,95121.19
2019-04-20T14:12:40.253Z,95121.63
2019-04-20T14:15:08.986Z,95121.63
2019-04-20T14:17:37.723Z,95116.63
2019-04-20T14:20:12.116Z,95108.66
2019-04-20T14:22:37.099Z,95114.70
2019-04-20T14:25:07.035Z,95114.81
2019-04-20T14:27:37.030Z,95110.49
2019-04-20T14:30:07.172Z,95109.22
2019-04-20T14:32:36.821Z,95112.76
2019-04-20T14:35:07.200Z,95112.25
2019-04-20T14:37:36.070Z,95115.87
2019-04-20T14:40:08.107Z,95112.84
2019-04-20T14:42:44.853Z,95103.77
2019-04-20T14:45:10.961Z,95108.64
2019-04-20T14:47:39.773Z,95111.89
2019-04-20T14:50:09.784Z,95113.73
2019-04-20T14:52:39.646Z,95101.66
2019-04-20T14:55:08.644Z,95103.46
2019-04-20T14:57:37.460Z,95111.92
2019-04-20T15:00:15.681Z,95112.16
2019-04-20T15:02:44.342Z,95110.71
2019-04-20T15:05:12.977Z,95108.29
2019-04-20T15:07:42.639Z,95101.78
2019-04-20T15:10:11.329Z,95102.07
2019-04-20T15:12:48.824Z,95103.47
2019-04-20T15:15:10.673Z,95107.00
2019-04-20T15:17:43.915Z,95112.58
2019-04-20T15:20:15.199Z,95104.68
2019-04-20T15:22:45.524Z,95114.34
2019-04-20T15:25:14.178Z,95107.53
2019-04-20T15:27:45.791Z,95113.77
2019-04-20T15:30:14.103Z,95111.41
2019-04-20T15:32:43.114Z,95116.50
2019-04-20T15:35:13.151Z,95107.53
2019-04-20T15:37:42.452Z,95110.42
2019-04-20T15:40:13.062Z,95112.25
2019-04-20T15:42:51.535Z,95109.23
2019-04-20T15:45:13.478Z,95110.03
2019-04-20T15:47:43.675Z,95107.44
2019-04-20T15:50:13.865Z,95114.24
2019-04-20T15:52:50.061Z,95118.98
2019-04-20T15:55:22.880Z,95112.66
2019-04-20T15:57:44.750Z,95110.30
2019-04-20T16:00:14.286Z,95107.19
2019-04-20T16:02:57.095Z,95108.75
2019-04-20T16:05:28.271Z,95113.63
2019-04-20T16:08:01.977Z,95107.23
2019-04-20T16:10:29.054Z,95109.90
2019-04-20T16:13:12.344Z,95115.98
2019-04-20T16:15:29.591Z,95119.73
2019-04-20T16:17:58.885Z,95116.41
2019-04-20T16:20:29.327Z,95111.49
2019-04-20T16:22:58.552Z,95109.56
2019-04-20T16:25:35.353Z,95110.00
2019-04-20T16:28:05.624Z,95107.94
2019-04-20T16:30:35.728Z,95105.19
2019-04-20T16:33:04.659Z,95106.19
2019-04-20T16:35:34.248Z,95114.13
2019-04-20T16:38:02.867Z,95113.53
2019-04-20T16:40:31.589Z,95111.72
2019-04-20T16:43:00.468Z,95109.66
2019-04-20T16:45:29.573Z,95117.00
2019-04-20T16:47:59.945Z,95116.75
2019-04-20T16:50:28.913Z,95109.98
2019-04-20T16:52:59.038Z,95107.53
2019-04-20T16:55:28.507Z,95107.77
2019-04-20T16:57:57.516Z,95108.26
2019-04-20T17:00:27.400Z,95107.56
2019-04-20T17:02:56.332Z,95109.09
2019-04-20T17:05:25.772Z,95107.77
2019-04-20T17:07:59.046Z,95113.17
2019-04-20T17:10:28.915Z,95110.47
2019-04-20T17:12:57.780Z,95109.31
2019-04-20T17:15:27.576Z,95117.83
2019-04-20T17:17:57.512Z,95114.70
2019-04-20T17:20:27.519Z,95118.69
2019-04-20T17:22:58.204Z,95118.58
2019-04-20T17:25:28.030Z,95119.59
2019-04-20T17:28:15.023Z,95118.07
2019-04-20T17:30:49.058Z,95121.02
2019-04-20T17:33:33.791Z,95117.27
2019-04-20T17:36:11.020Z,95117.92
2019-04-20T17:38:37.486Z,95122.87
2019-04-20T17:41:29.115Z,95126.12
2019-04-20T17:43:50.891Z,95135.00
2019-04-20T17:46:11.925Z,95126.23
2019-04-20T17:48:45.133Z,95131.66
2019-04-20T17:51:29.135Z,95134.94
2019-04-20T17:53:44.671Z,95144.20
2019-04-20T17:56:08.627Z,95142.61
2019-04-20T17:58:39.504Z,95146.88
2019-04-20T18:01:22.984Z,95153.41
2019-04-20T18:04:11.075Z,95154.58
2019-04-20T18:06:31.730Z,95157.70
2019-04-20T18:08:59.848Z,95154.41
2019-04-20T18:11:21.412Z,95158.59
2019-04-20T18:13:47.885Z,95157.98
2019-04-20T18:16:45.042Z,95157.70
2019-04-20T18:19:11.711Z,95164.73
2019-04-20T18:21:43.565Z,95162.05
2019-04-20T18:24:23.962Z,95169.44
2019-04-20T18:26:59.752Z,95169.20
2019-04-20T18:29:32.986Z,95165.89
2019-04-20T18:31:55.564Z,95174.45
2019-04-20T18:34:27.809Z,95173.97
2019-04-20T18:36:56.570Z,95173.77
2019-04-20T18:39:37.500Z,95173.65
2019-04-20T18:42:08.209Z,95180.25
2019-04-20T18:44:39.120Z,95179.19
2019-04-20T18:47:19.344Z,95174.41
2019-04-20T18:49:41.921Z,95174.56
2019-04-20T18:51:58.221Z,95177.85
2019-04-20T18:54:32.269Z,95171.79
2019-04-20T18:56:58.404Z,95176.59
2019-04-20T18:59:35.151Z,95171.59
2019-04-20T19:01:59.249Z,95170.97
2019-04-20T19:04:28.312Z,95179.04
2019-04-20T19:06:57.382Z,95181.19
2019-04-20T19:09:29.877Z,95180.20
2019-04-20T19:12:02.171Z,95185.61
2019-04-20T19:14:37.047Z,95177.33
2019-04-20T19:17:29.084Z,95181.75
2019-04-20T19:20:05.269Z,95185.86
2019-04-20T19:22:36.495Z,95186.85
2019-04-20T19:25:05.735Z,95184.94
2019-04-20T19:27:41.449Z,95186.66
2019-04-20T19:30:18.391Z,95178.46
2019-04-20T19:32:54.859Z,95177.11
2019-04-20T19:35:24.112Z,95174.00
2019-04-20T19:37:50.173Z,95175.62
2019-04-20T19:40:20.909Z,95178.29
2019-04-20T19:42:58.740Z,95170.19
2019-04-20T19:45:40.040Z,95174.06
2019-04-20T19:47:55.720Z,95175.95
2019-04-20T19:50:36.887Z,95177.86
2019-04-20T19:53:15.470Z,95183.11
2019-04-20T19:55:27.348Z,95187.59
2019-04-20T19:57:59.112Z,95187.00
2019-04-20T20:00:14.618Z,95183.11
2019-04-20T20:02:43.529Z,95179.25
2019-04-20T20:05:15.726Z,95172.44
2019-04-20T20:07:46.362Z,95169.71
2019-04-20T20:10:14.626Z,95170.11
2019-04-20T20:12:48.414Z,95174.44
2019-04-20T20:15:22.313Z,95172.94
2019-04-20T20:18:08.540Z,95174.80
2019-04-20T20:20:35.804Z,95175.87
2019-04-20T20:22:49.764Z,95177.83
2019-04-20T20:25:15.122Z,95180.27
2019-04-20T20:27:50.821Z,95177.88
2019-04-20T20:30:23.056Z,95175.84
2019-04-20T20:33:01.101Z,95182.01
2019-04-20T20:35:22.025Z,95180.55
2019-04-20T20:37:53.470Z,95181.31
2019-04-20T20:40:25.667Z,95181.59
2019-04-20T20:42:58.106Z,95178.63
2019-04-20T20:45:28.916Z,95179.23
2019-04-20T20:48:05.007Z,95175.03
2019-04-20T20:50:36.412Z,95179.58
2019-04-20T20:53:00.824Z,95168.06
2019-04-20T20:55:29.180Z,95169.40
2019-04-20T20:58:00.631Z,95175.90
2019-04-20T21:00:34.277Z,95167.70
2019-04-20T21:02:58.489Z,95168.91
2019-04-20T21:05:21.841Z,95172.41
2019-04-20T21:07:51.361Z,95168.44
2019-04-20T21:10:25.899Z,95170.16
2019-04-20T21:12:55.500Z,95167.24
2019-04-20T21:15:22.783Z,95175.30
2019-04-20T21:18:17.679Z,95169.58
2019-04-20T21:20:45.308Z,95170.86
2019-04-20T21:23:07.343Z,95163.23
2019-04-20T21:25:34.526Z,95163.23
2019-04-20T21:28:00.586Z,95175.95
2019-04-20T21:30:35.008Z,95175.95
2019-04-20T21:33:03.417Z,95172.88
2019-04-20T21:35:36.987Z,95176.98
2019-04-20T21:38:06.200Z,95173.95
2019-04-20T21:40:36.248Z,95180.05
2019-04-20T21:43:05.777Z,95176.87
2019-04-20T21:45:36.068Z,95176.87
2019-04-20T21:48:09.810Z,95169.63
2019-04-20T21:50:52.743Z,95172.78
2019-04-20T21:53:11.878Z,95172.78
2019-04-20T21:55:34.128Z,95169.00
2019-04-20T21:58:05.317Z,95167.59
2019-04-20T22:00:42.564Z,95176.30
2019-04-20T22:03:11.293Z,95171.42
2019-04-20T22:05:38.587Z,95167.08
2019-04-20T22:08:09.606Z,95165.45
2019-04-20T22:10:38.674Z,95163.21
2019-04-20T22:13:07.794Z,95166.08
2019-04-20T22:15:48.645Z,95166.55
2019-04-20T22:18:12.360Z,95166.55
2019-04-20T23:20:25.329Z,95121.17
2019-04-20T23:22:50.839Z,95120.92
2019-04-20T23:25:18.071Z,95117.20
2019-04-20T23:27:46.749Z,95116.50
2019-04-20T23:30:23.616Z,95107.47
2019-04-20T23:32:46.344Z,95105.67
2019-04-20T23:35:18.634Z,95105.67
2019-04-20T23:37:46.511Z,95108.55
2019-04-20T23:40:16.714Z,95099.51
2019-04-20T23:42:53.759Z,95098.55
2019-04-20T23:45:31.681Z,95101.11
2019-04-20T23:48:05.386Z,95096.14
2019-04-20T23:50:50.744Z,95096.14
2019-04-20T23:53:27.311Z,95112.34
2019-04-20T23:55:36.239Z,95100.72
2019-04-20T23:58:07.443Z,95100.72
